createdAt,value
2023-05-14T00:01:51.876Z,14.77
2023-05-14T00:04:21.433Z,10.65
2023-05-14T00:06:49.309Z,12.57
2023-05-14T00:09:17.325Z,19.80
2023-05-14T00:11:46.086Z,16.73
2023-05-14T00:14:14.048Z,17.15
2023-05-14T00:16:42.002Z,16.02
2023-05-14T00:19:10.253Z,16.15
2023-05-14T00:21:39.862Z,16.20
2023-05-14T00:24:08.160Z,16.13
2023-05-14T00:26:36.181Z,20.77
2023-05-14T00:29:04.304Z,15.38
2023-05-14T00:31:32.382Z,17.80
2023-05-14T00:34:00.419Z,15.73
2023-05-14T00:36:28.550Z,17.60
2023-05-14T00:38:57.866Z,14.30
2023-05-14T00:41:25.984Z,15.75
2023-05-14T00:43:54.185Z,14.75
2023-05-14T00:46:22.642Z,13.07
2023-05-14T00:48:50.719Z,11.45
2023-05-14T00:51:19.773Z,13.20
2023-05-14T00:53:48.188Z,12.73
2023-05-14T00:56:18.294Z,15.60
2023-05-14T00:58:46.257Z,13.05
2023-05-14T01:01:15.363Z,13.73
2023-05-14T01:03:44.251Z,14.15
2023-05-14T01:06:18.277Z,14.65
2023-05-14T01:09:10.039Z,13.90
2023-05-14T01:11:48.495Z,12.98
2023-05-14T01:14:22.752Z,13.77
2023-05-14T01:16:54.164Z,13.57
2023-05-14T01:19:28.305Z,10.73
2023-05-14T01:21:57.592Z,12.53
2023-05-14T01:24:25.537Z,14.00
2023-05-14T01:26:55.044Z,12.95
2023-05-14T01:29:24.783Z,13.38
2023-05-14T01:31:56.586Z,14.95
2023-05-14T01:34:26.519Z,13.27
2023-05-14T01:36:54.959Z,14.43
2023-05-14T01:39:25.711Z,13.75
2023-05-14T01:41:54.568Z,12.95
2023-05-14T01:44:23.010Z,11.40
2023-05-14T01:46:51.032Z,15.57
2023-05-14T01:49:19.697Z,13.75
2023-05-14T01:51:47.726Z,13.75
2023-05-14T01:54:15.728Z,14.93
2023-05-14T01:56:45.088Z,13.38
2023-05-14T01:59:13.107Z,13.00
2023-05-14T02:01:41.330Z,12.13
2023-05-14T02:04:09.882Z,11.90
2023-05-14T02:06:37.964Z,10.90
2023-05-14T02:09:06.584Z,11.75
2023-05-14T02:11:34.713Z,8.73
2023-05-14T02:14:04.207Z,11.95
2023-05-14T02:16:32.344Z,9.20
2023-05-14T02:19:00.609Z,10.60
2023-05-14T02:21:28.681Z,10.10
2023-05-14T02:23:57.190Z,10.65
2023-05-14T02:26:25.228Z,11.05
2023-05-14T02:28:53.240Z,8.77
2023-05-14T02:31:22.795Z,8.95
2023-05-14T02:33:51.275Z,10.18
2023-05-14T02:36:19.448Z,9.82
2023-05-14T02:38:47.578Z,9.15
2023-05-14T02:41:15.752Z,11.88
2023-05-14T02:43:43.764Z,10.60
2023-05-14T02:46:11.722Z,9.68
2023-05-14T02:48:41.107Z,12.38
2023-05-14T02:51:09.423Z,9.13
2023-05-14T02:53:37.477Z,8.40
2023-05-14T02:56:06.024Z,10.35
2023-05-14T02:58:33.967Z,12.18
2023-05-14T03:01:01.929Z,8.25
2023-05-14T03:03:30.860Z,12.18
2023-05-14T03:06:00.666Z,11.32
2023-05-14T03:08:28.658Z,10.95
2023-05-14T03:10:56.776Z,8.88
2023-05-14T03:13:24.757Z,11.25
2023-05-14T03:15:55.084Z,8.43
2023-05-14T03:18:23.241Z,11.25
2023-05-14T03:20:51.279Z,10.27
2023-05-14T03:23:20.807Z,12.05
2023-05-14T03:25:48.653Z,10.85
2023-05-14T03:28:16.701Z,10.82
2023-05-14T03:30:44.724Z,10.73
2023-05-14T03:33:13.744Z,11.02
2023-05-14T03:35:41.758Z,11.32
2023-05-14T03:38:09.797Z,8.88
2023-05-14T03:40:39.150Z,11.38
2023-05-14T03:43:07.187Z,10.45
2023-05-14T03:45:35.185Z,13.13
2023-05-14T03:48:03.270Z,11.63
2023-05-14T03:50:31.401Z,11.75
2023-05-14T03:52:59.388Z,9.23
2023-05-14T03:55:27.336Z,7.40
2023-05-14T03:57:56.724Z,11.32
2023-05-14T04:00:25.178Z,9.68
2023-05-14T04:02:53.720Z,11.32
2023-05-14T04:05:21.916Z,9.52
2023-05-14T04:07:50.053Z,11.20
2023-05-14T04:10:18.059Z,13.38
2023-05-14T04:12:46.331Z,8.82
2023-05-14T04:15:15.931Z,8.80
2023-05-14T04:17:44.069Z,9.38
2023-05-14T04:20:12.451Z,10.50
2023-05-14T04:22:40.520Z,11.57
2023-05-14T04:25:09.321Z,11.43
2023-05-14T04:27:37.272Z,10.70
2023-05-14T04:30:06.625Z,10.85
2023-05-14T04:32:36.533Z,9.52
2023-05-14T04:35:05.426Z,8.13
2023-05-14T04:37:33.572Z,8.43
2023-05-14T04:40:01.798Z,10.15
2023-05-14T04:42:29.943Z,8.18
2023-05-14T04:44:58.384Z,8.07
2023-05-14T04:47:26.582Z,8.57
2023-05-14T04:49:56.014Z,7.90
2023-05-14T04:52:23.980Z,8.38
2023-05-14T04:54:52.155Z,9.80
2023-05-14T04:57:20.326Z,7.80
2023-05-14T04:59:48.567Z,8.23
2023-05-14T05:02:16.540Z,9.73
2023-05-14T05:04:44.655Z,7.38
2023-05-14T05:07:14.618Z,8.95
2023-05-14T05:09:42.725Z,10.60
2023-05-14T05:12:11.019Z,12.30
2023-05-14T05:14:38.983Z,10.70
2023-05-14T05:17:09.976Z,14.68
2023-05-14T05:19:43.734Z,15.00
2023-05-14T05:22:13.829Z,11.77
2023-05-14T05:24:42.011Z,7.38
2023-05-14T05:27:12.628Z,8.35
2023-05-14T05:29:40.736Z,6.47
2023-05-14T05:32:09.273Z,7.05
2023-05-14T05:34:37.436Z,7.05
2023-05-14T05:37:06.465Z,7.07
2023-05-14T05:39:36.044Z,7.93
2023-05-14T05:42:04.305Z,9.07
2023-05-14T05:44:32.525Z,7.30
2023-05-14T05:47:00.730Z,7.00
2023-05-14T05:49:29.139Z,5.88
2023-05-14T05:51:57.518Z,9.82
2023-05-14T05:54:27.223Z,8.05
2023-05-14T05:56:56.705Z,7.32
2023-05-14T05:59:25.771Z,7.07
2023-05-14T06:01:54.008Z,5.95
2023-05-14T06:04:25.287Z,6.85
2023-05-14T06:06:53.399Z,8.40
2023-05-14T06:09:21.448Z,6.82
2023-05-14T06:11:49.516Z,7.50
2023-05-14T06:14:18.856Z,6.68
2023-05-14T06:16:47.101Z,6.70
2023-05-14T06:19:15.302Z,5.93
2023-05-14T06:21:43.340Z,6.38
2023-05-14T06:24:13.295Z,5.80
2023-05-14T06:26:41.369Z,5.90
2023-05-14T06:29:09.321Z,12.27
2023-05-14T06:31:38.800Z,6.13
2023-05-14T06:34:06.958Z,7.97
2023-05-14T06:36:34.832Z,5.93
2023-05-14T06:39:03.616Z,5.25
2023-05-14T06:41:31.738Z,8.60
2023-05-14T06:43:59.712Z,9.43
2023-05-14T06:46:27.806Z,5.13
2023-05-14T06:48:59.305Z,6.82
2023-05-14T06:51:27.788Z,7.15
2023-05-14T06:53:56.515Z,5.90
2023-05-14T06:56:24.513Z,5.88
2023-05-14T06:58:52.464Z,6.07
2023-05-14T07:01:20.490Z,6.35
2023-05-14T07:03:48.570Z,8.02
2023-05-14T07:06:18.059Z,5.57
2023-05-14T07:08:46.786Z,6.57
2023-05-14T07:11:15.336Z,5.65
2023-05-14T07:13:44.697Z,6.15
2023-05-14T07:16:12.748Z,5.97
2023-05-14T07:18:41.033Z,5.72
2023-05-14T07:21:09.119Z,7.50
2023-05-14T07:23:38.502Z,6.50
2023-05-14T07:26:07.195Z,5.30
2023-05-14T07:28:35.486Z,5.93
2023-05-14T07:31:05.026Z,5.60
2023-05-14T07:33:33.177Z,6.78
2023-05-14T07:36:01.275Z,7.65
2023-05-14T07:38:29.557Z,5.65
2023-05-14T07:40:59.008Z,6.78
2023-05-14T07:43:27.435Z,5.68
2023-05-14T07:45:55.649Z,7.93
2023-05-14T07:48:23.717Z,5.45
2023-05-14T07:50:52.008Z,11.15
2023-05-14T07:53:19.973Z,6.20
2023-05-14T07:55:48.485Z,9.98
2023-05-14T07:58:17.771Z,6.32
2023-05-14T08:00:45.905Z,6.32
2023-05-14T08:03:14.036Z,6.00
2023-05-14T08:05:42.588Z,5.55
2023-05-14T08:08:10.723Z,6.97
2023-05-14T08:10:39.043Z,5.65
2023-05-14T08:13:07.146Z,5.20
2023-05-14T08:15:36.542Z,5.72
2023-05-14T08:18:04.761Z,5.95
2023-05-14T08:20:32.810Z,5.78
2023-05-14T08:23:00.725Z,5.85
2023-05-14T08:25:28.816Z,5.28
2023-05-14T08:27:56.929Z,5.18
2023-05-14T08:30:25.363Z,6.95
2023-05-14T08:32:55.314Z,5.60
2023-05-14T08:35:23.342Z,7.13
2023-05-14T08:37:52.242Z,5.20
2023-05-14T08:40:20.580Z,6.05
2023-05-14T08:42:49.170Z,6.43
2023-05-14T08:45:20.360Z,6.38
2023-05-14T08:47:50.563Z,7.00
2023-05-14T08:50:22.929Z,6.35
2023-05-14T08:52:51.672Z,6.18
2023-05-14T08:55:21.048Z,6.72
2023-05-14T08:57:50.577Z,11.23
2023-05-14T09:00:18.930Z,4.90
2023-05-14T09:02:48.906Z,6.97
2023-05-14T09:05:20.467Z,6.10
2023-05-14T09:07:48.511Z,6.78
2023-05-14T09:10:17.298Z,4.95
2023-05-14T09:12:45.552Z,6.18
2023-05-14T09:15:13.975Z,4.35
2023-05-14T09:17:42.178Z,7.85
2023-05-14T09:20:12.114Z,5.18
2023-05-14T09:22:41.535Z,6.13
2023-05-14T09:25:12.355Z,7.72
2023-05-14T09:27:43.281Z,6.38
2023-05-14T09:30:12.976Z,6.10
2023-05-14T09:32:44.074Z,5.78
2023-05-14T09:35:17.053Z,6.07
2023-05-14T09:37:47.856Z,6.30
2023-05-14T09:40:17.576Z,5.93
2023-05-14T09:42:45.864Z,5.28
2023-05-14T09:45:13.970Z,5.57
2023-05-14T09:47:42.130Z,7.03
2023-05-14T09:50:10.600Z,5.13
2023-05-14T09:52:39.400Z,4.72
2023-05-14T09:55:10.036Z,6.55
2023-05-14T09:57:37.958Z,6.57
2023-05-14T10:00:08.628Z,7.60
2023-05-14T10:02:40.650Z,7.18
2023-05-14T10:05:09.898Z,5.20
2023-05-14T10:07:41.675Z,5.45
2023-05-14T10:10:17.654Z,4.97
2023-05-14T10:12:52.145Z,5.60
2023-05-14T10:15:24.417Z,5.15
2023-05-14T10:17:57.935Z,5.85
2023-05-14T10:20:27.602Z,5.43
2023-05-14T10:22:55.588Z,4.43
2023-05-14T10:25:25.457Z,5.88
2023-05-14T10:27:53.979Z,3.97
2023-05-14T10:30:23.955Z,6.72
2023-05-14T10:33:07.628Z,5.03
2023-05-14T10:35:56.165Z,8.48
2023-05-14T10:38:27.197Z,8.25
2023-05-14T10:41:00.015Z,6.72
2023-05-14T10:43:30.766Z,5.07
2023-05-14T10:46:00.052Z,4.25
2023-05-14T10:48:28.476Z,7.00
2023-05-14T10:50:59.677Z,4.63
2023-05-14T10:53:35.258Z,7.40
2023-05-14T10:56:06.821Z,4.78
2023-05-14T10:58:37.293Z,4.97
2023-05-14T11:01:07.269Z,8.05
2023-05-14T11:03:42.111Z,5.32
2023-05-14T11:06:11.209Z,5.70
2023-05-14T11:08:39.938Z,5.10
2023-05-14T11:11:10.926Z,6.93
2023-05-14T11:13:39.504Z,8.40
2023-05-14T11:16:21.977Z,6.60
2023-05-14T11:18:55.844Z,6.80
2023-05-14T11:21:23.982Z,8.98
2023-05-14T11:23:51.969Z,6.38
2023-05-14T11:26:21.825Z,4.95
2023-05-14T11:28:50.480Z,4.10
2023-05-14T11:31:19.110Z,7.32
2023-05-14T11:33:47.391Z,6.78
2023-05-14T11:36:15.639Z,4.45
2023-05-14T11:38:51.531Z,7.78
2023-05-14T11:41:21.364Z,7.35
2023-05-14T11:43:51.102Z,8.02
2023-05-14T11:46:19.775Z,3.65
2023-05-14T11:48:48.301Z,5.25
2023-05-14T11:51:16.324Z,6.20
2023-05-14T11:53:44.336Z,6.00
2023-05-14T11:56:12.494Z,4.85
2023-05-14T11:58:40.957Z,7.13
2023-05-14T12:01:14.743Z,6.80
2023-05-14T12:03:42.964Z,5.22
2023-05-14T12:06:11.132Z,4.95
2023-05-14T12:08:39.119Z,7.50
2023-05-14T12:11:07.672Z,4.40
2023-05-14T12:13:37.507Z,3.58
2023-05-14T12:16:06.085Z,5.10
2023-05-14T12:18:35.690Z,5.63
2023-05-14T12:21:05.008Z,4.55
2023-05-14T12:23:33.866Z,5.32
2023-05-14T12:26:06.956Z,4.50
2023-05-14T12:28:38.025Z,4.72
2023-05-14T12:31:06.990Z,7.70
2023-05-14T12:33:36.429Z,3.03
2023-05-14T12:36:20.664Z,4.18
2023-05-14T12:38:50.060Z,3.10
2023-05-14T12:41:18.343Z,6.30
2023-05-14T12:43:48.665Z,6.03
2023-05-14T12:46:17.190Z,3.20
2023-05-14T12:48:47.336Z,4.53
2023-05-14T12:51:15.618Z,4.43
2023-05-14T12:53:43.859Z,4.28
2023-05-14T12:56:12.084Z,4.05
2023-05-14T12:58:40.200Z,2.78
2023-05-14T13:01:08.551Z,5.60
2023-05-14T13:03:36.649Z,4.28
2023-05-14T13:06:06.614Z,3.60
2023-05-14T13:08:34.640Z,3.42
2023-05-14T13:11:02.610Z,4.78
2023-05-14T13:13:30.633Z,3.80
2023-05-14T13:15:58.710Z,2.97
2023-05-14T13:18:27.253Z,2.78
2023-05-14T13:20:55.521Z,2.80
2023-05-14T13:23:25.309Z,4.70
2023-05-14T13:25:53.348Z,5.20
2023-05-14T13:28:21.285Z,3.95
2023-05-14T13:31:07.026Z,4.47
2023-05-14T13:33:37.308Z,3.97
2023-05-14T13:36:05.843Z,5.60
2023-05-14T13:38:35.393Z,6.15
2023-05-14T13:41:03.499Z,3.80
2023-05-14T13:43:32.115Z,4.30
2023-05-14T13:46:00.314Z,4.95
2023-05-14T13:48:28.873Z,4.72
2023-05-14T13:50:57.056Z,2.72
2023-05-14T13:53:26.085Z,3.35
2023-05-14T13:55:58.411Z,4.43
2023-05-14T13:58:26.690Z,4.78
2023-05-14T14:00:55.181Z,3.17
2023-05-14T14:03:23.189Z,4.65
2023-05-14T14:05:51.680Z,4.05
2023-05-14T14:08:24.032Z,3.63
2023-05-14T14:10:54.572Z,2.65
2023-05-14T14:13:24.434Z,3.53
2023-05-14T14:15:52.923Z,5.75
2023-05-14T14:18:21.042Z,5.78
2023-05-14T14:20:49.283Z,4.60
2023-05-14T14:23:17.212Z,4.40
2023-05-14T14:25:45.287Z,6.68
2023-05-14T14:28:13.684Z,3.78
2023-05-14T14:30:43.848Z,2.88
2023-05-14T14:33:12.504Z,4.03
2023-05-14T14:35:40.599Z,4.93
2023-05-14T14:38:08.608Z,4.20
2023-05-14T14:40:36.741Z,5.22
2023-05-14T14:43:04.809Z,6.00
2023-05-14T14:45:32.798Z,5.50
2023-05-14T14:48:28.373Z,8.30
2023-05-14T14:50:56.644Z,5.68
2023-05-14T14:53:25.548Z,4.30
2023-05-14T14:55:54.228Z,5.32
2023-05-14T14:58:22.521Z,3.05
2023-05-14T15:00:52.452Z,5.05
2023-05-14T15:03:20.857Z,3.45
2023-05-14T15:05:51.178Z,5.45
2023-05-14T15:08:19.216Z,2.95
2023-05-14T15:10:47.694Z,2.95
2023-05-14T15:13:15.701Z,3.67
2023-05-14T15:15:43.674Z,5.65
2023-05-14T15:18:11.947Z,5.22
2023-05-14T15:20:40.072Z,4.68
2023-05-14T15:23:11.650Z,4.00
2023-05-14T15:25:39.918Z,4.55
2023-05-14T15:28:08.265Z,3.33
2023-05-14T15:30:36.640Z,6.40
2023-05-14T15:33:04.764Z,5.68
2023-05-14T15:35:32.729Z,3.20
2023-05-14T15:38:00.795Z,4.65
2023-05-14T15:40:30.402Z,4.43
2023-05-14T15:42:58.437Z,3.85
2023-05-14T15:45:26.440Z,4.90
2023-05-14T15:47:54.730Z,4.90
2023-05-14T15:50:22.963Z,7.20
2023-05-14T15:52:51.328Z,6.20
2023-05-14T15:55:19.423Z,11.27
2023-05-14T15:57:48.779Z,12.05
2023-05-14T16:00:17.629Z,7.55
2023-05-14T16:02:45.717Z,9.52
2023-05-14T16:05:18.305Z,5.13
2023-05-14T16:07:46.558Z,9.10
2023-05-14T16:10:14.531Z,3.75
2023-05-14T16:12:42.607Z,4.60
2023-05-14T16:15:12.909Z,3.92
2023-05-14T16:17:41.059Z,7.18
2023-05-14T16:20:09.964Z,5.82
2023-05-14T16:22:37.888Z,5.47
2023-05-14T16:25:06.704Z,5.78
2023-05-14T16:27:35.547Z,5.10
2023-05-14T16:30:04.542Z,5.50
2023-05-14T16:32:33.920Z,7.18
2023-05-14T16:35:02.974Z,5.00
2023-05-14T16:37:32.085Z,4.22
2023-05-14T16:40:00.048Z,10.38
2023-05-14T16:42:28.237Z,3.28
2023-05-14T16:44:56.207Z,4.32
2023-05-14T16:47:24.256Z,4.07
2023-05-14T16:49:53.597Z,3.05
2023-05-14T16:52:21.685Z,3.33
2023-05-14T16:54:49.509Z,4.75
2023-05-14T16:57:17.519Z,3.38
2023-05-14T16:59:45.542Z,3.97
2023-05-14T17:02:13.602Z,3.97
2023-05-14T17:04:42.284Z,3.78
2023-05-14T17:07:11.757Z,4.22
2023-05-14T17:09:39.880Z,7.32
2023-05-14T17:12:09.680Z,4.30
2023-05-14T17:14:37.579Z,3.67
2023-05-14T17:17:06.092Z,4.63
2023-05-14T17:19:36.165Z,3.88
2023-05-14T17:22:05.879Z,3.35
2023-05-14T17:24:36.540Z,3.88
2023-05-14T17:27:04.865Z,3.97
2023-05-14T17:29:33.007Z,3.95
2023-05-14T17:32:01.207Z,3.80
2023-05-14T17:34:31.089Z,5.68
2023-05-14T17:36:59.192Z,3.88
2023-05-14T17:39:27.325Z,5.80
2023-05-14T17:41:58.693Z,3.83
2023-05-14T17:44:26.717Z,6.25
2023-05-14T17:46:54.870Z,5.50
2023-05-14T17:49:23.001Z,4.00
2023-05-14T17:51:50.975Z,5.05
2023-05-14T17:54:18.992Z,5.20
2023-05-14T17:56:48.181Z,7.55
2023-05-14T17:59:17.713Z,6.80
2023-05-14T18:01:45.735Z,7.25
2023-05-14T18:04:13.758Z,6.10
2023-05-14T18:06:41.717Z,6.22
2023-05-14T18:09:09.632Z,13.15
2023-05-14T18:11:37.615Z,17.00
2023-05-14T18:14:05.690Z,12.63
2023-05-14T18:16:35.150Z,8.90
2023-05-14T18:19:03.396Z,10.45
2023-05-14T18:21:31.617Z,7.47
2023-05-14T18:23:59.700Z,10.27
2023-05-14T18:26:27.803Z,12.45
2023-05-14T18:28:55.864Z,7.97
2023-05-14T18:31:23.818Z,6.22
2023-05-14T18:33:53.269Z,5.93
2023-05-14T18:36:21.374Z,4.95
2023-05-14T18:38:49.425Z,4.75
2023-05-14T18:41:17.425Z,5.82
2023-05-14T18:43:45.580Z,5.55
2023-05-14T18:46:13.698Z,10.27
2023-05-14T18:48:41.872Z,12.57
2023-05-14T18:51:12.416Z,20.48
2023-05-14T18:53:40.551Z,22.08
2023-05-14T18:56:09.550Z,24.90
2023-05-14T18:58:37.554Z,14.98
2023-05-14T19:01:05.494Z,13.27
2023-05-14T19:03:33.831Z,14.45
2023-05-14T19:06:01.930Z,9.43
2023-05-14T19:08:31.193Z,8.77
2023-05-14T19:10:59.308Z,6.30
2023-05-14T19:13:30.319Z,9.18
2023-05-14T19:15:58.342Z,9.30
2023-05-14T19:18:26.454Z,6.50
2023-05-14T19:20:56.614Z,8.77
2023-05-14T19:23:24.764Z,11.27
2023-05-14T19:25:54.252Z,9.05
2023-05-14T19:28:22.427Z,9.48
2023-05-14T19:30:51.325Z,7.78
2023-05-14T19:33:19.380Z,6.45
2023-05-14T19:35:47.743Z,10.07
2023-05-14T19:38:15.788Z,9.93
2023-05-14T19:40:45.017Z,11.27
2023-05-14T19:43:14.636Z,16.10
2023-05-14T19:45:42.854Z,19.10
2023-05-14T19:48:12.497Z,13.85
2023-05-14T19:50:41.528Z,27.10
2023-05-14T19:53:09.555Z,17.10
2023-05-14T19:55:37.560Z,24.80
2023-05-14T19:58:05.667Z,36.00
2023-05-14T20:00:37.062Z,19.42
2023-05-14T20:03:05.950Z,16.17
2023-05-14T20:05:36.164Z,9.18
2023-05-14T20:08:06.598Z,11.45
2023-05-14T20:10:34.781Z,21.73
2023-05-14T20:13:02.710Z,30.92
2023-05-14T20:15:31.245Z,19.30
2023-05-14T20:18:01.042Z,13.63
2023-05-14T20:20:32.996Z,10.10
2023-05-14T20:23:01.585Z,9.45
2023-05-14T20:25:29.746Z,8.48
2023-05-14T20:27:58.098Z,9.48
2023-05-14T20:30:26.281Z,11.57
2023-05-14T20:32:54.445Z,11.25
2023-05-14T20:35:24.084Z,13.88
2023-05-14T20:37:52.497Z,9.75
2023-05-14T20:40:21.445Z,12.00
2023-05-14T20:42:50.699Z,11.38
2023-05-14T20:45:18.773Z,11.85
2023-05-14T20:47:46.731Z,10.77
2023-05-14T20:50:14.885Z,9.95
2023-05-14T20:52:44.325Z,9.60
2023-05-14T20:55:13.362Z,9.13
2023-05-14T20:57:43.577Z,11.20
2023-05-14T21:00:13.252Z,9.68
2023-05-14T21:02:41.496Z,8.15
2023-05-14T21:05:09.829Z,11.00
2023-05-14T21:07:39.348Z,9.88
2023-05-14T21:10:10.143Z,11.43
2023-05-14T21:12:38.232Z,12.63
2023-05-14T21:15:07.038Z,10.15
2023-05-14T21:17:35.027Z,9.52
2023-05-14T21:20:03.147Z,10.63
2023-05-14T21:22:31.109Z,11.88
2023-05-14T21:24:59.146Z,9.20
2023-05-14T21:27:28.552Z,11.07
2023-05-14T21:29:56.512Z,7.35
2023-05-14T21:32:24.588Z,8.80
2023-05-14T21:34:52.620Z,11.63
2023-05-14T21:37:20.922Z,8.75
2023-05-14T21:39:49.084Z,10.40
2023-05-14T21:42:17.757Z,12.70
2023-05-14T21:44:47.071Z,10.88
2023-05-14T21:47:15.084Z,9.63
2023-05-14T21:49:43.149Z,10.75
2023-05-14T21:52:11.273Z,10.48
2023-05-14T21:54:39.241Z,11.88
2023-05-14T21:57:07.553Z,11.05
2023-05-14T21:59:36.296Z,9.07
2023-05-14T22:02:07.846Z,10.40
2023-05-14T22:04:36.392Z,10.80
2023-05-14T22:07:04.584Z,10.48
2023-05-14T22:09:32.608Z,13.27
2023-05-14T22:12:00.775Z,11.40
2023-05-14T22:14:28.809Z,10.32
2023-05-14T22:16:57.643Z,12.45
2023-05-14T22:19:27.847Z,10.40
2023-05-14T22:21:56.092Z,9.90
2023-05-14T22:24:24.110Z,12.38
2023-05-14T22:26:52.263Z,11.55
2023-05-14T22:29:20.244Z,11.30
2023-05-14T22:31:48.363Z,10.20
2023-05-14T22:34:16.482Z,8.27
2023-05-14T22:36:45.893Z,9.90
2023-05-14T22:39:14.085Z,9.52
2023-05-14T22:41:42.062Z,10.13
2023-05-14T22:44:10.233Z,10.20
2023-05-14T22:46:38.459Z,9.50
2023-05-14T22:49:06.480Z,11.10
2023-05-14T22:51:34.441Z,9.93
2023-05-14T22:54:04.049Z,9.90
2023-05-14T22:56:32.263Z,9.77
2023-05-14T22:59:01.130Z,11.80
2023-05-14T23:01:29.762Z,11.02
2023-05-14T23:03:57.832Z,11.68
2023-05-14T23:06:26.481Z,8.57
2023-05-14T23:08:54.479Z,10.30
2023-05-14T23:11:23.850Z,10.98
2023-05-14T23:13:51.878Z,9.15
2023-05-14T23:16:20.467Z,10.57
2023-05-14T23:18:48.574Z,10.85
2023-05-14T23:21:16.774Z,10.27
2023-05-14T23:23:45.445Z,8.35
2023-05-14T23:26:13.588Z,8.00
2023-05-14T23:28:42.856Z,9.73
2023-05-14T23:31:10.900Z,9.05
2023-05-14T23:33:39.865Z,8.27
2023-05-14T23:36:08.925Z,8.50
2023-05-14T23:38:37.175Z,10.23
2023-05-14T23:41:05.379Z,8.10
2023-05-14T23:43:33.875Z,9.05
2023-05-14T23:46:03.975Z,8.57
2023-05-14T23:48:32.230Z,10.25
2023-05-14T23:51:00.125Z,9.25
2023-05-14T23:53:28.217Z,9.27
2023-05-14T23:55:56.579Z,10.25
2023-05-14T23:58:24.800Z,9.50
